Time;durP1;ratioP1;P1;durP2;ratioP2;P2;SDS_P1;SDS_P2;PMS_P1;PMS_P2;Temp;Humidity;BMP_temperature;BMP_pressure;BME280_temperature;BME280_humidity;BME280_pressure;Samples;Min_cycle;Max_cycle;Signal;HPM_P1;HPM_P2
2023/03/11 11:55:27;;;;;;;3.67;1.33;;;;;;;8.04;61.08;99795.81;6201514;22;19923;-95
2023/03/11 11:57:58;;;;;;;13.75;1.83;;;;;;;7.96;60.72;99782.56;6189480;22;20345;-95
2023/03/11 12:00:36;;;;;;;5.68;1.27;;;;;;;8.38;59.79;99793.03;6178993;23;20001;-94
2023/03/11 12:03:12;;;;;;;7.10;1.50;;;;;;;7.91;61.41;99807.72;6154423;23;20008;-96
2023/03/11 12:05:51;;;;;;;11.50;2.28;;;;;;;7.49;62.64;99768.94;6159840;23;20014;-93
2023/03/11 12:08:34;;;;;;;159.95;65.40;;;;;;;7.78;62.15;99783.59;6156920;23;20328;-96
2023/03/11 12:11:10;;;;;;;394.65;100.22;;;;;;;7.41;62.38;99749.72;6157174;23;20005;-95
2023/03/11 12:14:04;;;;;;;472.90;108.53;;;;;;;7.66;62.96;99788.53;6155829;23;20005;-94
2023/03/11 12:16:30;;;;;;;483.13;106.25;;;;;;;7.89;62.94;99782.09;6155892;23;20016;-95
2023/03/11 12:19:02;;;;;;;304.02;88.47;;;;;;;7.68;63.53;99737.91;6155753;23;20010;-94
2023/03/11 12:21:50;;;;;;;199.32;70.32;;;;;;;7.97;62.78;99758.53;6157625;23;20013;-94
2023/03/11 12:24:30;;;;;;;15.27;2.45;;;;;;;7.91;62.60;99758.88;6156413;23;20432;-95
2023/03/11 12:27:05;;;;;;;415.08;102.15;;;;;;;8.08;63.01;99745.06;6182814;23;20013;-95
2023/03/11 12:29:35;;;;;;;148.68;60.53;;;;;;;7.74;62.49;99700.75;6159148;23;20017;-95
2023/03/11 12:32:01;;;;;;;475.92;107.53;;;;;;;7.78;63.34;99711.69;6156895;23;20006;-95
2023/03/11 12:34:29;;;;;;;32.70;12.43;;;;;;;7.96;62.46;99718.34;6158361;23;20014;-95
2023/03/11 12:37:15;;;;;;;5.05;1.33;;;;;;;8.03;61.44;99747.91;6160967;23;20336;-96
2023/03/11 12:39:44;;;;;;;5.78;0.88;;;;;;;7.53;61.44;99718.22;6159798;23;20328;-94
2023/03/11 12:45:48;;;;;;;5.13;1.17;;;;;;;7.76;61.92;99739.22;6160911;23;20110;-93
2023/03/11 12:48:31;;;;;;;18.58;4.03;;;;;;;7.63;62.03;99729.66;6158428;23;20028;-93
2023/03/11 12:50:58;;;;;;;1.60;0.70;;;;;;;7.08;63.19;99722.44;6158710;23;19997;-92
2023/03/11 12:53:48;;;;;;;6.88;1.20;;;;;;;7.48;62.25;99743.31;6160345;23;20005;-94
2023/03/11 12:56:14;;;;;;;3.58;1.00;;;;;;;7.91;61.60;99723.75;6159003;23;20412;-93
2023/03/11 12:59:04;;;;;;;4.82;1.95;;;;;;;7.98;60.86;99703.66;6182257;23;20006;-95
2023/03/11 13:01:55;;;;;;;2.60;0.77;;;;;;;8.09;60.20;99719.25;6157099;23;20005;-95
2023/03/11 13:04:58;;;;;;;5.72;0.93;;;;;;;8.63;58.38;99716.09;6156932;23;20506;-95
2023/03/11 13:07:32;;;;;;;2.30;0.70;;;;;;;8.15;58.64;99707.81;6156990;23;20044;-93
2023/03/11 13:10:20;;;;;;;3.58;1.00;;;;;;;7.86;60.28;99709.50;6182665;23;20325;-94
2023/03/11 13:12:49;;;;;;;2.55;0.93;;;;;;;7.83;60.26;99677.13;6182745;23;20092;-94
2023/03/11 13:15:28;;;;;;;2.13;0.70;;;;;;;8.24;60.27;99684.13;6157654;23;20005;-94
2023/03/11 13:18:11;;;;;;;1.80;1.02;;;;;;;7.64;61.02;99694.50;6159421;23;20487;-95
2023/03/11 13:20:40;;;;;;;3.28;0.90;;;;;;;7.31;62.41;99702.38;6181424;23;20013;-94
2023/03/11 13:23:11;;;;;;;5.22;1.10;;;;;;;7.45;62.27;99702.41;6180145;23;20443;-94
2023/03/11 13:25:42;;;;;;;5.03;1.23;;;;;;;7.43;62.63;99696.53;6182232;23;20002;-94
2023/03/11 13:28:32;;;;;;;3.40;1.00;;;;;;;7.35;62.60;99699.53;6158035;23;20085;-94
2023/03/11 13:31:16;;;;;;;6.68;1.08;;;;;;;7.55;62.89;99700.97;6158699;23;20466;-93
2023/03/11 13:33:53;;;;;;;6.93;1.20;;;;;;;7.22;62.07;99675.47;6158183;23;20009;-93
2023/03/11 13:36:31;;;;;;;3.17;1.05;;;;;;;7.74;62.74;99684.53;6158014;23;20056;-95
2023/03/11 13:39:19;;;;;;;2.97;0.93;;;;;;;7.32;62.70;99680.94;6179757;23;20009;-94
2023/03/11 13:41:46;;;;;;;5.47;0.95;;;;;;;7.36;62.78;99669.56;6155997;23;20440;-93
2023/03/11 13:44:17;;;;;;;1.88;0.90;;;;;;;7.47;63.58;99669.78;6155039;23;20101;-94
2023/03/11 13:46:48;;;;;;;4.30;1.67;;;;;;;7.43;62.85;99678.56;6180064;23;20005;-93
2023/03/11 13:51:53;;;;;;;5.60;1.10;;;;;;;6.93;64.04;99630.91;6185913;22;20033;-96
2023/03/11 13:54:30;;;;;;;8.80;1.23;;;;;;;7.23;63.88;99672.00;6185716;23;20043;-94
2023/03/11 13:56:58;;;;;;;4.10;1.20;;;;;;;7.02;64.39;99640.63;6184840;23;20002;-93
2023/03/11 13:59:27;;;;;;;11.25;1.70;;;;;;;6.93;65.40;99643.75;6185477;23;20012;-95
2023/03/11 14:02:00;;;;;;;3.50;1.58;;;;;;;6.64;65.71;99620.50;6185283;23;20428;-94
2023/03/11 14:04:34;;;;;;;3.22;1.33;;;;;;;7.00;65.35;99642.50;6184429;23;20005;-94
2023/03/11 14:07:18;;;;;;;3.90;1.27;;;;;;;6.75;66.66;99654.06;6184635;23;20031;-93
2023/03/11 14:09:43;;;;;;;4.72;1.55;;;;;;;6.75;67.30;99648.13;6186830;23;20001;-94
2023/03/11 14:12:10;;;;;;;4.18;1.08;;;;;;;6.73;67.30;99655.91;6183585;23;20039;-94
2023/03/11 14:14:57;;;;;;;3.90;1.40;;;;;;;6.61;67.34;99667.66;6183044;23;20047;-92
2023/03/11 14:17:23;;;;;;;4.53;1.42;;;;;;;6.40;67.84;99613.22;6184209;23;20021;-93
2023/03/11 14:20:08;;;;;;;5.60;1.17;;;;;;;6.11;69.01;99608.81;6184195;23;20546;-95
2023/03/11 14:22:33;;;;;;;5.35;1.25;;;;;;;5.92;70.35;99614.84;6184764;23;20005;-95
2023/03/11 14:25:04;;;;;;;9.85;1.40;;;;;;;6.04;70.57;99633.09;6184627;23;20096;-93
2023/03/11 14:27:30;;;;;;;5.78;2.10;;;;;;;6.07;71.38;99615.84;6184117;23;20088;-95
2023/03/11 14:29:55;;;;;;;5.43;1.88;;;;;;;6.03;70.71;99611.78;6183473;23;20107;-95
2023/03/11 14:32:31;;;;;;;5.85;1.90;;;;;;;6.19;70.92;99633.13;6183659;23;20001;-92
2023/03/11 14:34:57;;;;;;;5.88;2.03;;;;;;;6.28;70.62;99619.00;6183193;23;20088;-94
2023/03/11 14:37:29;;;;;;;9.13;1.73;;;;;;;5.94;75.66;99600.25;6183270;23;20102;-93
2023/03/11 14:39:54;;;;;;;4.95;2.13;;;;;;;5.78;78.36;99636.06;6183364;23;20052;-93
2023/03/11 14:42:31;;;;;;;4.35;1.40;;;;;;;5.41;82.36;99626.78;6183385;23;20013;-91
2023/03/11 14:45:03;;;;;;;3.13;1.73;;;;;;;5.65;84.92;99629.06;6183961;23;20025;-93
2023/03/11 14:47:47;;;;;;;3.47;2.03;;;;;;;5.52;85.39;99639.06;6184097;23;20009;-94
2023/03/11 14:50:17;;;;;;;3.88;1.85;;;;;;;5.74;82.96;99628.59;6183358;23;20005;-94
2023/03/11 14:52:56;;;;;;;7.78;1.88;;;;;;;5.59;81.79;99596.91;6183808;23;20016;-94
2023/03/11 14:55:27;;;;;;;5.93;1.60;;;;;;;5.82;81.71;99618.78;6183262;23;20067;-93
2023/03/11 14:58:37;;;;;;;4.50;2.03;;;;;;;5.50;81.60;99594.81;6184328;23;20016;-94
2023/03/11 15:01:11;;;;;;;4.00;1.95;;;;;;;5.38;82.58;99623.56;6186159;23;20025;-95
2023/03/11 15:03:40;;;;;;;3.65;2.25;;;;;;;5.09;86.50;99590.81;6184439;23;20045;-95
2023/03/11 15:06:08;;;;;;;11.07;2.67;;;;;;;4.94;97.88;99599.22;6184820;23;20431;-95
2023/03/11 15:08:46;;;;;;;9.32;3.63;;;;;;;5.05;100.00;99630.25;6183190;23;20001;-93
2023/03/11 15:11:11;;;;;;;10.10;2.60;;;;;;;4.98;100.00;99616.09;6184975;23;20429;-94
2023/03/11 15:13:39;;;;;;;5.65;3.38;;;;;;;4.90;100.00;99607.94;6184626;23;20061;-94
2023/03/11 15:16:19;;;;;;;6.93;3.67;;;;;;;4.64;100.00;99579.34;6185942;23;20043;-94
2023/03/11 15:18:45;;;;;;;5.47;3.15;;;;;;;4.61;100.00;99568.41;6184566;23;20058;-93
2023/03/11 15:21:35;;;;;;;10.43;4.22;;;;;;;4.97;100.00;99616.97;6195592;22;20040;-96
2023/03/11 15:24:05;;;;;;;10.90;4.53;;;;;;;4.84;100.00;99580.13;6189740;23;20354;-96
2023/03/11 15:26:37;;;;;;;9.45;4.75;;;;;;;4.91;100.00;99576.38;6184514;23;20063;-94
2023/03/11 15:29:16;;;;;;;7.30;4.28;;;;;;;4.96;100.00;99594.06;6184384;23;20012;-95
2023/03/11 15:31:45;;;;;;;8.05;5.10;;;;;;;4.80;100.00;99558.16;6184119;23;20013;-94
2023/03/11 15:34:16;;;;;;;11.05;5.30;;;;;;;5.09;100.00;99580.59;6183461;23;20454;-93
2023/03/11 15:36:48;;;;;;;10.15;6.18;;;;;;;5.06;100.00;99585.84;6182814;23;20122;-93
2023/03/11 15:39:24;;;;;;;11.55;6.25;;;;;;;5.08;100.00;99590.91;6183625;23;20001;-95
2023/03/11 15:42:13;;;;;;;8.82;5.28;;;;;;;4.96;100.00;99559.06;6183504;23;20078;-93
2023/03/11 15:45:03;;;;;;;10.45;5.32;;;;;;;5.11;100.00;99588.19;6184195;23;20032;-95
2023/03/11 15:47:29;;;;;;;13.23;5.90;;;;;;;4.99;100.00;99581.94;6183954;23;20009;-93
2023/03/11 15:49:55;;;;;;;12.15;7.63;;;;;;;4.78;100.00;99567.63;6183688;23;20097;-93
2023/03/11 15:52:20;;;;;;;10.57;5.60;;;;;;;4.94;100.00;99599.22;6183375;23;20001;-95
2023/03/11 15:54:46;;;;;;;11.65;5.82;;;;;;;4.89;100.00;99588.41;6183707;23;20009;-95
2023/03/11 15:57:27;;;;;;;15.85;6.30;;;;;;;4.71;100.00;99560.25;6184182;23;20005;-94
2023/03/11 15:59:54;;;;;;;9.98;6.28;;;;;;;4.82;100.00;99592.16;6184014;23;20010;-93
2023/03/11 16:02:25;;;;;;;15.27;6.55;;;;;;;4.63;100.00;99567.47;6184909;23;20020;-94
2023/03/11 16:04:51;;;;;;;16.45;6.10;;;;;;;4.72;100.00;99566.19;6184859;23;20007;-96
2023/03/11 16:07:17;;;;;;;9.90;6.55;;;;;;;4.68;100.00;99547.63;6185072;23;20100;-93
2023/03/11 16:09:42;;;;;;;17.70;7.20;;;;;;;4.83;100.00;99545.22;6184701;23;20428;-95
2023/03/11 16:12:19;;;;;;;11.93;7.55;;;;;;;4.73;100.00;99552.53;6183876;23;20001;-94
2023/03/11 16:14:46;;;;;;;12.45;6.68;;;;;;;4.90;100.00;99587.47;6183243;23;20001;-94
2023/03/11 16:17:13;;;;;;;14.18;9.20;;;;;;;4.84;100.00;99580.13;6182922;23;20031;-94
2023/03/11 16:20:17;;;;;;;12.38;7.88;;;;;;;4.54;100.00;99544.06;6189624;23;20001;-95
2023/03/11 16:22:47;;;;;;;15.45;8.18;;;;;;;4.78;100.00;99567.63;6181887;23;20032;-96
2023/03/11 16:25:28;;;;;;;16.50;10.85;;;;;;;4.66;100.00;99531.53;6186765;23;20027;-93
2023/03/11 16:27:55;;;;;;;16.70;9.38;;;;;;;4.91;100.00;99573.81;6182863;23;20420;-92
2023/03/11 16:30:31;;;;;;;16.63;10.27;;;;;;;4.70;100.00;99567.97;6183415;23;20009;-95
2023/03/11 16:32:56;;;;;;;13.02;9.52;;;;;;;4.57;100.00;99569.47;6183787;23;20115;-93
2023/03/11 16:35:22;;;;;;;17.90;10.18;;;;;;;4.64;100.00;99579.34;6181162;23;20059;-92
2023/03/11 16:37:48;;;;;;;15.93;10.48;;;;;;;4.57;100.00;99577.97;6182870;23;20008;-93
2023/03/11 16:40:26;;;;;;;17.13;10.13;;;;;;;4.81;100.00;99570.06;6184765;23;20303;-96
2023/03/11 16:43:16;;;;;;;21.10;10.85;;;;;;;4.95;100.00;99567.66;6185426;23;20009;-95
2023/03/11 16:45:42;;;;;;;14.90;10.25;;;;;;;4.78;100.00;99545.47;6182333;23;20412;-93
2023/03/11 16:48:07;;;;;;;17.42;10.93;;;;;;;4.87;100.00;99569.75;6183052;23;20020;-93
2023/03/11 16:50:33;;;;;;;17.80;13.10;;;;;;;4.76;100.00;99546.44;6183199;23;20005;-93
2023/03/11 16:52:59;;;;;;;16.83;11.20;;;;;;;4.91;100.00;99566.16;6185323;23;20375;-91
2023/03/11 16:55:26;;;;;;;18.60;11.75;;;;;;;4.91;100.00;99550.81;6185536;23;20356;-91
2023/03/11 16:57:53;;;;;;;15.95;10.65;;;;;;;4.92;100.00;99568.59;6184720;23;20001;-91
2023/03/11 17:00:19;;;;;;;16.25;11.55;;;;;;;5.02;100.00;99574.09;6184827;23;20005;-93
2023/03/11 17:02:44;;;;;;;15.85;11.57;;;;;;;4.86;100.00;99555.31;6182788;23;20001;-93
2023/03/11 17:05:10;;;;;;;16.00;11.18;;;;;;;4.87;100.00;99551.84;6185729;23;20093;-94
2023/03/11 17:07:36;;;;;;;22.95;11.80;;;;;;;4.68;100.00;99522.06;6186123;23;20012;-93
2023/03/11 17:10:02;;;;;;;15.30;11.85;;;;;;;4.77;100.00;99542.97;6186414;23;20100;-92
2023/03/11 17:12:28;;;;;;;15.63;12.20;;;;;;;4.61;100.00;99542.84;6186778;23;20001;-92
2023/03/11 17:14:54;;;;;;;18.33;12.52;;;;;;;4.80;100.00;99569.19;6184453;23;20313;-93
2023/03/11 17:17:20;;;;;;;23.83;12.60;;;;;;;4.72;100.00;99541.44;6183880;23;20368;-93
2023/03/11 17:19:45;;;;;;;15.07;11.40;;;;;;;4.63;100.00;99541.91;6184873;23;20028;-90
2023/03/11 17:22:11;;;;;;;15.30;12.25;;;;;;;4.69;100.00;99516.03;6184591;23;20420;-92
2023/03/11 17:24:37;;;;;;;16.23;11.43;;;;;;;4.87;100.00;99541.63;6185017;23;20027;-92
2023/03/11 17:27:13;;;;;;;;;;;;;;;;;;;;;
2023/03/11 17:29:39;;;;;;;24.30;12.05;;;;;;;4.91;100.00;99548.25;6187308;23;20049;-92
2023/03/11 17:32:05;;;;;;;16.50;11.88;;;;;;;4.84;100.00;99539.22;6182515;23;20024;-93
2023/03/11 17:34:31;;;;;;;19.88;11.65;;;;;;;4.67;100.00;99517.84;6182515;23;20095;-92
2023/03/11 17:36:56;;;;;;;16.65;10.70;;;;;;;4.88;100.00;99540.72;6183504;23;20001;-92
2023/03/11 17:39:22;;;;;;;14.52;10.60;;;;;;;4.93;100.00;99543.91;6183364;23;20005;-91
2023/03/11 17:41:47;;;;;;;13.55;10.20;;;;;;;4.79;100.00;99531.75;6183237;23;20231;-91
2023/03/11 17:44:13;;;;;;;13.60;10.63;;;;;;;4.79;100.00;99541.16;6182971;23;20017;-93
2023/03/11 17:46:39;;;;;;;17.20;9.60;;;;;;;4.91;100.00;99535.47;6183119;23;20088;-92
2023/03/11 17:49:05;;;;;;;13.63;10.38;;;;;;;5.03;100.00;99555.31;6184496;23;20009;-92
2023/03/11 17:51:31;;;;;;;16.15;10.85;;;;;;;5.03;100.00;99534.88;6182650;23;20332;-93
2023/03/11 17:53:58;;;;;;;14.75;10.80;;;;;;;4.93;100.00;99528.56;6184728;23;20005;-93
2023/03/11 17:56:24;;;;;;;17.10;11.30;;;;;;;5.10;100.00;99551.56;6182932;23;20081;-92
2023/03/11 17:58:50;;;;;;;14.90;11.55;;;;;;;5.00;100.00;99537.56;6183229;23;20012;-93
2023/03/11 18:01:24;;;;;;;14.00;10.05;;;;;;;5.08;100.00;99526.97;6182151;23;20005;-91
2023/03/11 18:03:50;;;;;;;12.98;10.05;;;;;;;5.05;100.00;99540.72;6184833;23;20005;-91
2023/03/11 18:06:19;;;;;;;18.40;10.80;;;;;;;4.97;100.00;99527.47;6182917;23;20432;-93
2023/03/11 18:08:45;;;;;;;13.50;10.27;;;;;;;5.12;100.00;99543.78;6183341;23;20314;-92
2023/03/11 18:11:13;;;;;;;16.17;11.40;;;;;;;5.10;100.00;99541.34;6183545;23;20005;-92
2023/03/11 18:13:39;;;;;;;15.95;11.07;;;;;;;5.28;100.00;99560.06;6182925;23;20001;-92
2023/03/11 18:16:11;;;;;;;17.02;12.43;;;;;;;5.26;100.00;99561.84;6182058;23;20103;-92
2023/03/11 18:18:36;;;;;;;;;;;;;;;5.19;100.00;99559.69;6183302;23;20001;-91
2023/03/11 18:21:04;;;;;;;18.13;11.43;;;;;;;5.05;100.00;99537.34;6207922;23;19909;-93
2023/03/11 18:23:34;;;;;;;14.60;11.02;;;;;;;5.06;100.00;99550.06;6125000;23;1347476;-92
2023/03/11 18:26:01;;;;;;;21.00;11.80;;;;;;;5.08;100.00;99562.78;6183701;23;20031;-92
2023/03/11 18:28:27;;;;;;;15.65;11.13;;;;;;;5.11;100.00;99525.06;6183013;23;20005;-93
2023/03/11 18:30:55;;;;;;;15.65;11.50;;;;;;;5.17;100.00;99531.63;6184427;23;20388;-93
2023/03/11 18:33:22;;;;;;;15.35;10.73;;;;;;;5.22;100.00;99528.81;6184103;23;20036;-92
2023/03/11 18:35:47;;;;;;;20.88;12.32;;;;;;;5.13;100.00;99517.34;6184503;23;19997;-93
2023/03/11 18:38:13;;;;;;;18.15;12.50;;;;;;;5.33;100.00;99531.69;6185812;23;20491;-92
2023/03/11 18:40:38;;;;;;;17.52;13.07;;;;;;;5.31;100.00;99531.75;6186849;23;20001;-93
2023/03/11 18:43:04;;;;;;;16.15;11.77;;;;;;;5.36;100.00;99552.00;6183703;23;20033;-91
2023/03/11 18:45:29;;;;;;;21.50;13.05;;;;;;;5.31;100.00;99536.88;6182795;23;20009;-91
2023/03/11 18:47:55;;;;;;;18.45;11.30;;;;;;;5.21;100.00;99524.63;6183830;23;20451;-92
2023/03/11 18:50:20;;;;;;;17.85;12.32;;;;;;;5.31;100.00;99553.94;6184440;23;20473;-91
2023/03/11 18:52:48;;;;;;;16.63;11.48;;;;;;;5.34;100.00;99534.16;6182782;23;20005;-91
2023/03/11 18:55:14;;;;;;;15.52;11.20;;;;;;;5.33;100.00;99536.78;6182484;23;19998;-91
2023/03/11 18:57:41;;;;;;;17.00;11.93;;;;;;;5.22;100.00;99516.88;6182865;23;20012;-91
2023/03/11 19:00:07;;;;;;;15.68;11.45;;;;;;;5.36;100.00;99534.06;6184510;23;20040;-92
2023/03/11 19:02:33;;;;;;;16.08;12.00;;;;;;;5.34;100.00;99533.31;6181809;23;20004;-93
2023/03/11 19:04:58;;;;;;;16.65;12.50;;;;;;;5.32;100.00;99528.31;6182746;23;20009;-93
2023/03/11 19:07:24;;;;;;;17.50;11.85;;;;;;;5.40;100.00;99517.69;6184070;23;20009;-92
2023/03/11 19:09:49;;;;;;;16.40;12.65;;;;;;;5.41;100.00;99529.56;6184184;23;20028;-93
2023/03/11 19:12:14;;;;;;;21.40;13.98;;;;;;;5.45;100.00;99546.41;6183574;23;20027;-92
2023/03/11 19:14:40;;;;;;;27.02;15.70;;;;;;;5.36;100.00;99541.75;6182102;23;20020;-92
2023/03/11 19:17:05;;;;;;;18.67;13.98;;;;;;;5.27;100.00;99522.59;6183226;23;20754;-92
2023/03/11 19:19:32;;;;;;;16.73;12.25;;;;;;;5.38;100.00;99534.84;6181924;23;20305;-93
2023/03/11 19:21:57;;;;;;;18.10;13.52;;;;;;;5.47;100.00;99539.50;6184315;23;20001;-91
2023/03/11 19:24:22;;;;;;;19.17;13.20;;;;;;;5.56;100.00;99549.25;6182265;23;20009;-92
2023/03/11 19:26:48;;;;;;;20.58;14.02;;;;;;;5.37;100.00;99517.84;6187746;23;20494;-90
2023/03/11 19:29:14;;;;;;;19.73;12.57;;;;;;;5.42;100.00;99526.09;6185667;23;20444;-92
2023/03/11 19:31:39;;;;;;;19.63;13.70;;;;;;;5.68;100.00;99554.66;6184244;23;20008;-94
2023/03/11 19:34:05;;;;;;;16.65;13.02;;;;;;;5.52;100.00;99547.75;6184332;23;20001;-92
2023/03/11 19:39:26;;;;;;;17.40;12.20;;;;;;;5.62;100.00;99544.75;6184170;22;20031;-93
2023/03/11 19:41:51;;;;;;;20.00;13.38;;;;;;;5.66;100.00;99538.56;6208014;23;20001;-92
2023/03/11 19:44:17;;;;;;;20.70;13.45;;;;;;;5.51;100.00;99529.91;6185097;23;20032;-95
2023/03/11 19:46:42;;;;;;;17.38;13.20;;;;;;;5.50;100.00;99518.84;6189356;23;20379;-96
2023/03/11 19:49:07;;;;;;;19.50;13.23;;;;;;;5.60;100.00;99524.31;6184711;23;20008;-95
2023/03/11 19:51:33;;;;;;;21.08;13.80;;;;;;;5.55;100.00;99514.31;6183410;23;20028;-93
2023/03/11 19:53:58;;;;;;;15.85;12.32;;;;;;;5.64;100.00;99501.97;6183812;23;20069;-95
2023/03/11 19:56:26;;;;;;;20.95;13.15;;;;;;;5.74;100.00;99519.31;6183859;23;20005;-94
2023/03/11 19:58:52;;;;;;;22.20;13.90;;;;;;;5.83;100.00;99525.72;6184900;23;20032;-94
2023/03/11 20:01:19;;;;;;;19.83;15.30;;;;;;;5.92;100.00;99525.19;6183109;23;20012;-95
2023/03/11 20:03:45;;;;;;;21.73;15.00;;;;;;;5.76;100.00;99499.59;6183992;23;20101;-96
2023/03/11 20:06:12;;;;;;;20.63;14.43;;;;;;;5.77;100.00;99502.97;6184564;23;20036;-94
2023/03/11 20:08:38;;;;;;;25.73;17.23;;;;;;;5.91;100.00;99521.00;6182625;23;20096;-95
2023/03/11 20:11:05;;;;;;;18.88;13.82;;;;;;;5.93;100.00;99521.75;6183394;23;20095;-95
2023/03/11 20:13:32;;;;;;;22.05;14.57;;;;;;;5.81;100.00;99486.53;6182355;23;20009;-94
2023/03/11 20:16:10;;;;;;;19.35;13.68;;;;;;;5.87;100.00;99505.88;6183350;23;20348;-94
2023/03/11 20:18:36;;;;;;;20.70;13.25;;;;;;;5.93;100.00;99521.75;6183651;23;20033;-94
2023/03/11 20:21:09;;;;;;;19.60;13.57;;;;;;;5.91;100.00;99497.94;6183635;23;20396;-96
2023/03/11 20:23:36;;;;;;;19.73;14.25;;;;;;;5.86;100.00;99497.38;6183202;23;20005;-94
2023/03/11 20:26:07;;;;;;;19.95;15.15;;;;;;;5.89;100.00;99499.75;6185131;23;20005;-94
2023/03/11 20:28:33;;;;;;;28.63;18.67;;;;;;;6.04;100.00;99517.81;6186129;23;20005;-95
2023/03/11 20:31:05;;;;;;;23.73;16.67;;;;;;;5.92;100.00;99485.97;6185603;23;20001;-94
2023/03/11 20:33:31;;;;;;;23.05;15.85;;;;;;;5.85;100.00;99471.84;6185668;23;20433;-94
2023/03/11 20:36:07;;;;;;;24.05;15.82;;;;;;;5.91;100.00;99497.13;6187588;23;20040;-95
2023/03/11 20:38:33;;;;;;;20.40;14.20;;;;;;;5.91;100.00;99472.34;6185695;23;20036;-96
2023/03/11 20:40:59;;;;;;;19.70;14.60;;;;;;;6.12;100.00;99510.53;6185809;23;20005;-95
2023/03/11 20:43:24;;;;;;;22.15;15.90;;;;;;;5.99;100.00;99493.25;6185907;23;20028;-95
2023/03/11 20:45:50;;;;;;;22.15;15.68;;;;;;;5.90;100.00;99488.63;6185550;23;20340;-96
2023/03/11 20:48:15;;;;;;;24.70;16.05;;;;;;;5.82;100.00;99488.19;6185571;23;20012;-96
2023/03/11 20:50:41;;;;;;;18.30;14.55;;;;;;;5.95;100.00;99511.44;6186427;23;20001;-96
2023/03/11 20:53:06;;;;;;;24.38;16.05;;;;;;;5.99;100.00;99513.75;6185778;23;20377;-95
2023/03/11 20:55:32;;;;;;;21.23;16.08;;;;;;;5.86;100.00;99494.00;6184816;23;20005;-95
2023/03/11 20:57:57;;;;;;;18.92;14.75;;;;;;;5.99;100.00;99520.63;6185147;23;20540;-96
2023/03/11 21:00:23;;;;;;;20.65;14.20;;;;;;;6.20;100.00;99523.78;6186436;23;20344;-95
2023/03/11 21:02:48;;;;;;;21.08;13.07;;;;;;;6.04;100.00;99508.38;6186599;23;20001;-95
2023/03/11 21:05:14;;;;;;;16.60;11.88;;;;;;;6.18;100.00;99511.03;6186660;23;20005;-95
2023/03/11 21:07:39;;;;;;;25.60;15.05;;;;;;;6.23;100.00;99508.22;6186534;23;20312;-95
2023/03/11 21:10:08;;;;;;;24.05;15.13;;;;;;;6.29;100.00;99504.50;6186101;23;20005;-94
2023/03/11 21:12:33;;;;;;;25.38;14.57;;;;;;;6.16;100.00;99510.28;6185160;23;20016;-94
2023/03/11 21:14:59;;;;;;;19.20;13.50;;;;;;;6.40;100.00;99518.38;6185209;23;20001;-94
2023/03/11 21:17:24;;;;;;;21.65;13.73;;;;;;;6.48;100.00;99519.69;6185161;23;20043;-95
2023/03/11 21:19:50;;;;;;;30.73;14.93;;;;;;;6.44;100.00;99519.06;6185807;23;20084;-96
2023/03/11 21:22:15;;;;;;;21.60;12.60;;;;;;;6.48;100.00;99533.34;6186709;23;20063;-94
2023/03/11 21:24:40;;;;;;;18.23;12.15;;;;;;;6.38;100.00;99512.50;6185426;23;20005;-94
2023/03/11 21:27:06;;;;;;;17.33;11.40;;;;;;;6.62;100.00;99524.88;6185245;23;20013;-95
2023/03/11 21:29:31;;;;;;;13.65;9.07;;;;;;;6.48;100.00;99492.31;6185853;23;20345;-96
2023/03/11 21:31:57;;;;;;;14.73;9.48;;;;;;;6.65;100.00;99504.19;6187427;23;20089;-95
2023/03/11 21:34:22;;;;;;;14.68;9.30;;;;;;;6.55;100.00;99495.38;6187172;23;20009;-96
2023/03/11 21:37:03;;;;;;;14.35;8.98;;;;;;;6.69;100.00;99495.44;6187893;23;20454;-96
2023/03/11 21:41:59;;;;;;;17.15;8.20;;;;;;;6.81;100.00;99496.47;6175795;23;20017;-96
2023/03/11 21:44:26;;;;;;;11.13;6.38;;;;;;;7.06;100.00;99519.78;6150319;23;20020;-96
2023/03/11 21:46:52;;;;;;;15.65;6.65;;;;;;;6.85;100.00;99485.97;6153887;23;20017;-96
2023/03/11 21:49:17;;;;;;;15.18;6.05;;;;;;;6.97;100.00;99491.28;6150180;23;20068;-96
2023/03/11 21:51:43;;;;;;;14.82;5.63;;;;;;;7.08;100.00;99486.38;6148128;23;20021;-96
2023/03/11 21:54:09;;;;;;;16.58;7.07;;;;;;;7.17;100.00;99501.22;6133534;23;20006;-94
2023/03/11 21:56:35;;;;;;;15.52;5.95;;;;;;;7.29;100.00;99521.03;6155179;23;20471;-94
2023/03/11 21:59:01;;;;;;;12.43;5.28;;;;;;;7.33;100.00;99521.69;6129885;23;20037;-94
2023/03/11 22:01:27;;;;;;;15.68;5.95;;;;;;;7.22;100.00;99496.66;6131668;23;20340;-95
2023/03/11 22:03:53;;;;;;;13.30;6.25;;;;;;;7.40;100.00;99517.00;6156898;23;20001;-95
2023/03/11 22:06:20;;;;;;;14.02;6.55;;;;;;;7.23;100.00;99500.03;6160514;23;20349;-96
2023/03/11 22:11:19;;;;;;;16.45;7.22;;;;;;;7.39;100.00;99518.75;6188291;22;20141;-95
2023/03/11 22:13:46;;;;;;;18.80;6.40;;;;;;;7.40;100.00;99502.44;6159577;23;20040;-95
2023/03/11 22:16:12;;;;;;;21.27;6.82;;;;;;;7.57;100.00;99528.84;6160065;23;20237;-96
2023/03/11 22:18:37;;;;;;;22.60;6.97;;;;;;;7.49;100.00;99517.28;6160480;23;20488;-95
2023/03/11 22:21:03;;;;;;;21.10;7.40;;;;;;;7.41;100.00;99508.38;6161049;23;20001;-93
2023/03/11 22:23:29;;;;;;;18.10;6.75;;;;;;;7.63;100.00;99534.47;6158872;23;20024;-94
2023/03/11 22:25:55;;;;;;;18.00;7.35;;;;;;;7.59;100.00;99535.56;6159457;23;20008;-94
2023/03/11 22:28:21;;;;;;;21.25;7.30;;;;;;;7.70;100.00;99540.84;6160327;23;20333;-94
2023/03/11 22:30:46;;;;;;;21.42;7.30;;;;;;;7.50;100.00;99534.34;6160987;23;20451;-94
2023/03/11 22:33:12;;;;;;;20.42;6.88;;;;;;;7.55;100.00;99552.03;6161033;23;20009;-94
2023/03/11 22:35:37;;;;;;;13.32;6.40;;;;;;;7.52;100.00;99526.56;6161301;23;20015;-95
2023/03/11 22:38:03;;;;;;;18.58;7.32;;;;;;;7.43;100.00;99542.50;6159631;23;20001;-94
2023/03/11 22:40:28;;;;;;;21.33;5.88;;;;;;;7.55;100.00;99562.31;6159632;23;20014;-93
2023/03/11 22:42:54;;;;;;;14.88;6.57;;;;;;;7.49;100.00;99516.47;6162721;23;20005;-94
2023/03/11 22:45:22;;;;;;;27.83;6.90;;;;;;;7.69;100.00;99548.66;6160096;23;20005;-94
2023/03/11 22:47:49;;;;;;;21.10;5.07;;;;;;;7.77;100.00;99545.63;6161123;23;20015;-94
2023/03/11 22:50:15;;;;;;;30.10;5.90;;;;;;;7.82;100.00;99535.91;6160518;23;20056;-95
2023/03/11 22:52:40;;;;;;;30.02;5.40;;;;;;;7.81;100.00;99527.38;6160418;23;20001;-95
2023/03/11 22:55:05;;;;;;;79.15;8.70;;;;;;;7.91;100.00;99537.91;6160392;23;20009;-95
2023/03/11 22:57:37;;;;;;;64.82;9.55;;;;;;;7.97;100.00;99536.72;6160760;23;20001;-95
2023/03/11 23:00:14;;;;;;;58.65;7.63;;;;;;;7.95;100.00;99529.13;6160753;23;20027;-95
2023/03/11 23:02:39;;;;;;;59.55;7.68;;;;;;;8.14;100.00;99519.34;6160729;23;20016;-95
2023/03/11 23:05:05;;;;;;;48.78;8.20;;;;;;;8.18;100.00;99503.75;6161220;23;20005;-95
2023/03/11 23:07:30;;;;;;;65.32;9.60;;;;;;;8.33;100.00;99546.47;6160843;23;20495;-95
2023/03/11 23:09:56;;;;;;;59.65;10.38;;;;;;;8.28;100.00;99530.50;6161111;23;20008;-95
2023/03/11 23:12:21;;;;;;;70.15;8.93;;;;;;;8.41;100.00;99526.25;6161569;23;20027;-95
2023/03/11 23:14:46;;;;;;;64.60;7.38;;;;;;;8.35;100.00;99521.50;6161260;23;20033;-94
2023/03/11 23:17:12;;;;;;;55.53;9.00;;;;;;;8.47;100.00;99546.47;6161208;23;20009;-95
2023/03/11 23:19:37;;;;;;;64.70;7.82;;;;;;;8.44;100.00;99531.25;6159605;23;20456;-95
2023/03/11 23:22:03;;;;;;;76.47;8.20;;;;;;;8.47;100.00;99525.91;6160071;23;20083;-94
2023/03/11 23:24:28;;;;;;;84.65;9.90;;;;;;;8.51;100.00;99560.78;6159449;23;20087;-95
2023/03/11 23:26:54;;;;;;;80.32;10.35;;;;;;;8.43;100.00;99528.75;6159178;23;20395;-95
2023/03/11 23:29:19;;;;;;;108.72;12.13;;;;;;;8.45;100.00;99545.72;6159404;23;20155;-95
2023/03/11 23:31:44;;;;;;;102.07;13.48;;;;;;;8.32;100.00;99547.41;6159366;23;20001;-96
2023/03/11 23:34:10;;;;;;;97.82;13.38;;;;;;;8.53;100.00;99555.53;6158252;23;20009;-95
2023/03/11 23:36:35;;;;;;;121.75;17.08;;;;;;;8.50;100.00;99546.25;6158159;23;20020;-94
2023/03/11 23:39:01;;;;;;;164.48;18.52;;;;;;;8.55;100.00;99572.50;6159123;23;20442;-95
2023/03/11 23:41:26;;;;;;;135.50;16.60;;;;;;;8.55;100.00;99569.94;6159527;23;20006;-96
2023/03/11 23:43:52;;;;;;;126.60;16.75;;;;;;;8.66;100.00;99565.91;6158722;23;20012;-95
2023/03/11 23:46:17;;;;;;;159.20;18.13;;;;;;;8.62;100.00;99583.25;6157315;23;20009;-95